Quick Links (Output Below):   Max & Min Temps   /   Climate Reports   /   Zone Forecasts
River Forecasts   /   Forestry Forecasts   /   Aviation Forecasts   /   Radars   /   Features

Terminal Aerodrome Forecast (Jonesboro)

Pick a Site:
Arkadelphia | El Dorado | Fayetteville | Fort Smith | Harrison | Highfill | Hot Springs | Jonesboro
Little Rock | Monticello | Mountain Home | Pine Bluff | Texarkana
 Forecast 

KJBR 200530Z 2006/2106 22006KT P6SM SKC
     FM201500 24010KT P6SM SKC
     FM210100 21005KT P6SM SKC=


 Latest METARs (Observations) 
How to Decode METARs
08Z KJBR 200753Z AUTO 26004KT 10SM CLR 27/24 A2987 RMK AO2 SLP112
         T02670239
         
07Z KJBR 200653Z AUTO 25006KT 10SM CLR 27/24 A2987 RMK AO2 SLP110
         T02720244
         
06Z KJBR 200553Z AUTO 24011KT 10SM CLR 27/24 A2987 RMK AO2 SLP109
         T02720244 10311 20272 403390211 55000
         
05Z KJBR 200453Z AUTO 23011KT 10SM CLR 28/25 A2986 RMK AO2 SLP108
         T02780250
         
04Z KJBR 200353Z AUTO 22007KT 10SM CLR 28/25 A2986 RMK AO2 SLP108
         T02830250
         
03Z KJBR 200253Z AUTO 21007KT 10SM CLR 28/25 A2987 RMK AO2 SLP109
         T02830250 51021
         
02Z KJBR 200153Z AUTO 21009KT 10SM CLR 29/24 A2985 RMK AO2 SLP103
         T02940244
         
01Z KJBR 200053Z AUTO 20007KT 10SM CLR 30/24 A2983 RMK AO2 SLP097
         T03000244
         
00Z KJBR 192353Z AUTO 21008KT 10SM CLR 31/24 A2980 RMK AO2 SLP088
         T03110239 10339 20300 55005
         
***** Today's Observations (Above) *****


23Z KJBR 192253Z AUTO 22012KT 10SM CLR 33/23 A2980 RMK AO2 SLP086
         T03280228
         
***** Yesterday's Observations (Above) *****


Back to Main Page
http://www.srh.noaa.gov/lzk/qfcst.php

USA.gov is the U.S. government's official web portal to all federal, state and local government web resources and services.